Time;durP1;ratioP1;P1;durP2;ratioP2;P2;SDS_P1;SDS_P2;PMS_P1;PMS_P2;Temp;Humidity;BMP_temperature;BMP_pressure;BME280_temperature;BME280_humidity;BME280_pressure;Samples;Min_cycle;Max_cycle;Signal;HPM_P1;HPM_P2
2022/05/02 00:02:24;;;;;;;5.43;4.22;;;11.40;56.70;;;;;;5093978;28;20039;-70
2022/05/02 00:04:51;;;;;;;5.05;4.22;;;11.40;56.80;;;;;;5090035;28;20034;-70
2022/05/02 00:07:16;;;;;;;5.75;4.43;;;11.30;56.90;;;;;;5096382;28;20052;-69
2022/05/02 00:09:42;;;;;;;5.05;4.30;;;11.30;57.00;;;;;;5095755;28;20039;-69
2022/05/02 00:12:09;;;;;;;5.30;3.92;;;11.20;57.20;;;;;;5095096;28;20024;-71
2022/05/02 00:14:35;;;;;;;5.40;4.13;;;11.20;57.40;;;;;;5089531;28;20032;-70
2022/05/02 00:17:00;;;;;;;5.32;4.05;;;11.20;57.50;;;;;;5079404;28;20112;-70
2022/05/02 00:19:26;;;;;;;6.10;4.68;;;11.20;57.50;;;;;;5091127;28;20028;-70
2022/05/02 00:21:51;;;;;;;5.68;4.65;;;11.10;57.80;;;;;;5096445;28;20024;-70
2022/05/02 00:24:17;;;;;;;6.50;4.80;;;11.10;57.90;;;;;;5094432;28;20031;-71
2022/05/02 00:26:42;;;;;;;5.88;4.70;;;11.10;58.00;;;;;;5093299;28;20024;-70
2022/05/02 00:29:08;;;;;;;6.10;5.03;;;11.10;58.10;;;;;;5082946;28;20525;-70
2022/05/02 00:31:34;;;;;;;7.15;4.85;;;11.00;58.20;;;;;;5092422;28;20036;-70
2022/05/02 00:33:59;;;;;;;8.10;5.20;;;11.00;58.30;;;;;;5094315;28;20024;-70
2022/05/02 00:36:25;;;;;;;6.57;5.05;;;11.00;58.30;;;;;;5094782;28;20036;-70
2022/05/02 00:38:51;;;;;;;6.57;5.15;;;11.00;58.40;;;;;;5094448;28;20020;-70
2022/05/02 00:41:18;;;;;;;6.07;5.07;;;11.00;58.60;;;;;;5095069;28;20024;-71
2022/05/02 00:43:43;;;;;;;6.97;5.47;;;10.90;58.60;;;;;;5095596;28;20099;-71
2022/05/02 00:46:20;;;;;;;6.68;5.40;;;10.90;58.70;;;;;;5092873;28;20101;-71
2022/05/02 00:48:46;;;;;;;6.30;4.70;;;10.90;58.80;;;;;;5089542;28;20426;-71
2022/05/02 00:51:13;;;;;;;5.70;4.78;;;10.90;58.70;;;;;;5089782;28;20425;-71
2022/05/02 00:53:39;;;;;;;6.82;4.70;;;10.90;58.80;;;;;;5092976;28;20016;-71
2022/05/02 00:56:06;;;;;;;5.97;4.65;;;10.90;58.90;;;;;;5091370;28;20081;-70
2022/05/02 00:58:33;;;;;;;6.65;4.88;;;10.80;58.80;;;;;;5091440;28;20028;-70
2022/05/02 01:01:00;;;;;;;5.82;4.80;;;10.80;58.80;;;;;;5091640;28;20070;-70
2022/05/02 01:03:25;;;;;;;6.28;5.07;;;10.80;58.90;;;;;;5091289;28;20096;-70
2022/05/02 01:08:35;;;;;;;6.55;5.15;;;10.80;59.00;;;;;;5084522;28;20501;-70
2022/05/02 01:11:01;;;;;;;6.63;4.65;;;10.80;59.00;;;;;;5083620;28;20036;-69
2022/05/02 01:13:41;;;;;;;6.97;5.13;;;10.70;59.10;;;;;;5088598;28;20024;-70
2022/05/02 01:16:14;;;;;;;6.93;5.30;;;10.70;59.20;;;;;;5090975;28;20036;-70
2022/05/02 01:18:44;;;;;;;5.43;4.50;;;10.70;59.30;;;;;;5091799;28;20054;-71
2022/05/02 01:21:15;;;;;;;5.07;4.57;;;10.70;59.30;;;;;;5090452;28;20081;-71
2022/05/02 01:23:43;;;;;;;5.97;4.80;;;10.70;59.50;;;;;;5084414;28;20035;-70
2022/05/02 01:26:09;;;;;;;6.00;4.63;;;10.60;59.50;;;;;;5090973;28;20020;-70
2022/05/02 01:28:45;;;;;;;7.43;4.78;;;10.60;59.50;;;;;;5086365;28;20391;-71
2022/05/02 01:31:13;;;;;;;6.57;5.10;;;10.50;59.60;;;;;;5087659;28;20508;-70
2022/05/02 01:33:39;;;;;;;7.88;5.22;;;10.50;59.70;;;;;;5089319;28;20021;-70
2022/05/02 01:36:04;;;;;;;6.78;5.25;;;10.50;59.90;;;;;;5090445;28;20020;-72
2022/05/02 01:38:30;;;;;;;6.72;5.28;;;10.50;59.90;;;;;;5090338;28;20069;-69
2022/05/02 01:40:56;;;;;;;7.80;5.05;;;10.40;59.90;;;;;;5089526;28;20030;-70
2022/05/02 01:43:21;;;;;;;6.75;5.53;;;10.40;59.90;;;;;;5091081;28;20084;-70
2022/05/02 01:45:47;;;;;;;8.55;5.75;;;10.40;60.00;;;;;;5090647;28;20020;-70
2022/05/02 01:48:12;;;;;;;6.95;5.45;;;10.40;60.10;;;;;;5087703;28;20455;-70
2022/05/02 01:50:38;;;;;;;6.72;5.30;;;10.40;60.20;;;;;;5080971;28;20200;-70
2022/05/02 01:53:04;;;;;;;8.07;5.47;;;10.30;60.20;;;;;;5088876;28;20020;-70
2022/05/02 01:55:29;;;;;;;5.53;4.47;;;10.30;60.30;;;;;;5090832;28;20028;-69
2022/05/02 01:57:55;;;;;;;6.53;4.97;;;10.30;60.30;;;;;;5090152;28;20035;-70
2022/05/02 02:00:20;;;;;;;7.78;5.40;;;10.20;60.40;;;;;;5077822;28;20020;-70
2022/05/02 02:02:46;;;;;;;7.13;5.45;;;10.20;60.50;;;;;;5080563;28;20028;-70
2022/05/02 02:07:56;;;;;;;8.13;5.25;;;10.30;60.50;;;;;;5090162;28;20085;-70
2022/05/02 02:10:21;;;;;;;7.53;5.57;;;10.30;60.50;;;;;;5090204;28;20115;-69
2022/05/02 02:12:47;;;;;;;7.32;6.07;;;10.30;60.70;;;;;;5088837;28;20501;-69
2022/05/02 02:15:14;;;;;;;9.32;6.35;;;10.30;60.60;;;;;;5085179;28;20020;-69
2022/05/02 02:17:42;;;;;;;7.78;5.90;;;10.30;60.60;;;;;;5089443;28;20031;-69
2022/05/02 02:20:10;;;;;;;5.80;5.13;;;10.30;60.50;;;;;;5089923;28;20400;-67
2022/05/02 02:22:37;;;;;;;7.53;6.05;;;10.30;60.50;;;;;;5082685;28;20035;-67
2022/05/02 02:25:04;;;;;;;7.85;6.03;;;10.30;60.50;;;;;;5083896;28;20039;-69
2022/05/02 02:27:30;;;;;;;9.18;6.57;;;10.30;60.50;;;;;;5090160;28;20032;-70
2022/05/02 02:29:55;;;;;;;7.30;6.07;;;10.40;60.50;;;;;;5090127;28;20024;-70
2022/05/02 02:32:21;;;;;;;6.50;5.50;;;10.40;60.40;;;;;;5088614;28;20046;-70
2022/05/02 02:34:47;;;;;;;6.78;5.78;;;10.40;60.40;;;;;;5089372;28;20030;-70
2022/05/02 02:37:12;;;;;;;9.15;6.00;;;10.40;60.40;;;;;;5088308;28;20594;-70
2022/05/02 02:39:38;;;;;;;6.95;5.70;;;10.30;60.40;;;;;;5087178;28;20454;-71
2022/05/02 02:42:04;;;;;;;8.85;6.20;;;10.30;60.40;;;;;;5085229;28;20028;-71
2022/05/02 02:44:29;;;;;;;8.73;5.70;;;10.30;60.40;;;;;;5076351;28;20032;-70
2022/05/02 02:46:55;;;;;;;7.70;5.60;;;10.30;60.40;;;;;;5087073;28;20071;-69
2022/05/02 02:49:20;;;;;;;7.60;5.90;;;10.30;60.40;;;;;;5083652;28;20077;-69
2022/05/02 02:51:46;;;;;;;7.15;5.68;;;10.30;60.50;;;;;;5084047;28;20020;-70
2022/05/02 02:54:12;;;;;;;8.35;5.80;;;10.30;60.60;;;;;;5088244;28;20038;-70
2022/05/02 02:56:37;;;;;;;7.55;6.03;;;10.20;60.60;;;;;;5086782;28;20061;-70
2022/05/02 02:59:03;;;;;;;7.68;5.88;;;10.20;60.70;;;;;;5089992;28;20016;-70
2022/05/02 03:01:29;;;;;;;6.50;5.13;;;10.20;60.90;;;;;;5090196;28;20059;-70
2022/05/02 03:03:55;;;;;;;6.97;5.63;;;10.10;60.90;;;;;;5089109;28;20080;-68
2022/05/02 03:06:20;;;;;;;6.82;5.55;;;10.10;61.00;;;;;;5086637;28;20027;-68
2022/05/02 03:08:47;;;;;;;7.85;5.65;;;10.00;61.10;;;;;;5080981;28;20025;-68
2022/05/02 03:11:13;;;;;;;6.60;5.45;;;9.90;61.20;;;;;;5086400;28;20016;-70
2022/05/02 03:13:39;;;;;;;8.48;6.18;;;9.90;61.40;;;;;;5084739;28;20640;-70
2022/05/02 03:16:05;;;;;;;7.15;5.78;;;9.80;61.50;;;;;;5087451;28;20096;-71
2022/05/02 03:18:37;;;;;;;7.95;6.07;;;9.80;61.70;;;;;;5089644;28;20050;-70
2022/05/02 03:21:03;;;;;;;6.80;6.03;;;9.70;61.70;;;;;;5088862;28;20093;-71
2022/05/02 03:23:28;;;;;;;6.18;5.32;;;9.70;61.80;;;;;;5084739;28;20107;-72
2022/05/02 03:25:54;;;;;;;8.25;6.57;;;9.70;61.90;;;;;;5087203;28;20028;-72
2022/05/02 03:28:20;;;;;;;7.70;6.18;;;9.60;62.00;;;;;;5081552;28;20024;-71
2022/05/02 03:30:45;;;;;;;7.20;5.65;;;9.60;62.10;;;;;;5089589;28;20034;-72
2022/05/02 03:33:11;;;;;;;8.95;6.57;;;9.50;62.10;;;;;;5086270;28;20533;-72
2022/05/02 03:35:36;;;;;;;8.43;5.53;;;9.50;62.30;;;;;;5088021;28;20019;-72
2022/05/02 03:38:02;;;;;;;6.63;5.63;;;9.50;62.30;;;;;;5088742;28;20482;-70
2022/05/02 03:40:28;;;;;;;8.57;6.03;;;9.50;62.40;;;;;;5089200;28;20020;-71
2022/05/02 03:42:53;;;;;;;7.90;6.13;;;9.40;62.40;;;;;;5081140;28;20033;-71
2022/05/02 03:45:18;;;;;;;7.20;5.63;;;9.50;62.50;;;;;;5089892;28;20040;-70
2022/05/02 03:47:44;;;;;;;7.15;5.82;;;9.40;62.40;;;;;;5081156;28;20038;-69
2022/05/02 03:50:10;;;;;;;7.00;5.93;;;9.40;62.80;;;;;;5086873;28;20111;-71
2022/05/02 03:52:36;;;;;;;7.00;5.78;;;9.40;62.50;;;;;;5088985;28;20067;-72
2022/05/02 03:55:03;;;;;;;7.18;5.78;;;9.40;62.60;;;;;;5088133;28;20040;-71
2022/05/02 03:57:28;;;;;;;9.45;5.97;;;9.40;62.60;;;;;;5086214;28;20028;-72
2022/05/02 03:59:54;;;;;;;8.27;6.50;;;9.40;62.70;;;;;;5090206;28;20364;-72
2022/05/02 04:02:19;;;;;;;8.10;6.72;;;9.30;62.80;;;;;;5089366;28;20107;-72
2022/05/02 04:04:45;;;;;;;7.35;5.43;;;9.30;63.10;;;;;;5089133;28;20512;-68
2022/05/02 04:07:10;;;;;;;8.77;6.63;;;9.20;63.20;;;;;;5080498;28;20029;-72
2022/05/02 04:09:36;;;;;;;8.52;5.93;;;9.20;63.30;;;;;;5074238;28;20394;-72
2022/05/02 04:12:02;;;;;;;7.60;6.00;;;9.10;63.40;;;;;;5084120;28;20044;-71
2022/05/02 04:14:27;;;;;;;8.77;6.68;;;9.10;63.50;;;;;;5089651;28;20110;-70
2022/05/02 04:16:53;;;;;;;8.13;6.07;;;9.10;63.60;;;;;;5088097;28;20112;-71
2022/05/02 04:19:19;;;;;;;8.00;6.15;;;9.10;63.60;;;;;;5088390;28;20476;-72
2022/05/02 04:21:45;;;;;;;8.65;6.68;;;9.10;63.70;;;;;;5087355;28;20150;-71
2022/05/02 04:24:10;;;;;;;7.60;6.00;;;9.10;63.80;;;;;;5089560;28;20099;-71
2022/05/02 04:26:36;;;;;;;6.90;5.70;;;9.10;63.80;;;;;;5089893;28;20386;-70
2022/05/02 04:29:02;;;;;;;8.23;6.18;;;9.10;63.80;;;;;;5084003;28;20520;-72
2022/05/02 04:31:27;;;;;;;7.07;5.72;;;9.10;63.90;;;;;;5091399;28;20035;-72
2022/05/02 04:33:53;;;;;;;9.68;5.93;;;9.10;64.00;;;;;;5090924;28;20028;-71
2022/05/02 04:36:19;;;;;;;8.27;6.00;;;9.10;64.00;;;;;;5091164;28;20363;-70
2022/05/02 04:38:44;;;;;;;7.43;5.70;;;9.10;64.00;;;;;;5091266;28;20020;-68
2022/05/02 04:41:14;;;;;;;6.90;5.63;;;9.10;64.00;;;;;;5091555;28;20140;-69
2022/05/02 04:43:41;;;;;;;8.00;6.00;;;9.20;63.90;;;;;;5085000;28;20020;-69
2022/05/02 04:46:07;;;;;;;8.32;6.10;;;9.20;63.90;;;;;;5087421;28;20024;-70
2022/05/02 04:48:33;;;;;;;7.38;5.50;;;9.30;63.90;;;;;;5091258;28;20390;-71
2022/05/02 04:50:59;;;;;;;7.35;5.60;;;9.40;63.80;;;;;;5090177;28;20020;-73
2022/05/02 04:53:24;;;;;;;8.23;6.35;;;9.40;63.70;;;;;;5090755;28;20490;-73
2022/05/02 04:55:50;;;;;;;7.60;5.38;;;9.50;63.70;;;;;;5092333;28;20024;-72
2022/05/02 04:58:15;;;;;;;6.93;5.50;;;9.50;63.70;;;;;;5092478;28;20055;-72
2022/05/02 05:00:42;;;;;;;7.32;5.78;;;9.50;63.70;;;;;;5091403;28;20027;-71
2022/05/02 05:03:07;;;;;;;7.38;5.78;;;9.60;63.70;;;;;;5093464;28;20028;-73
2022/05/02 05:05:33;;;;;;;8.30;6.38;;;9.60;63.70;;;;;;5087906;28;20085;-71
2022/05/02 05:07:59;;;;;;;8.13;6.60;;;9.70;63.70;;;;;;5085938;28;20497;-72
2022/05/02 05:10:24;;;;;;;6.88;5.50;;;9.70;63.70;;;;;;5091088;28;20035;-71
2022/05/02 05:13:07;;;;;;;7.93;6.30;;;9.80;63.70;;;;;;5092448;28;20036;-71
2022/05/02 05:18:45;;;;;;;6.60;5.40;;;9.90;63.50;;;;;;5091871;28;19934;-72
2022/05/02 05:21:29;;;;;;;9.00;5.82;;;9.90;63.40;;;;;;5098274;28;20043;-70
2022/05/02 05:24:13;;;;;;;8.85;6.03;;;10.10;63.60;;;;;;5088451;28;20026;-71
2022/05/02 05:27:05;;;;;;;8.10;6.05;;;11.10;62.80;;;;;;5090342;28;20043;-72
2022/05/02 05:29:56;;;;;;;6.53;5.13;;;12.50;60.00;;;;;;5078095;28;20032;-71
2022/05/02 05:32:42;;;;;;;7.38;5.72;;;13.80;57.00;;;;;;5084658;28;20036;-71
2022/05/02 05:35:09;;;;;;;7.90;6.25;;;14.90;54.50;;;;;;5089179;28;20041;-71
2022/05/02 05:37:47;;;;;;;8.15;6.30;;;15.90;52.60;;;;;;5084602;28;20020;-70
2022/05/02 05:40:39;;;;;;;7.82;6.30;;;16.70;50.90;;;;;;5104880;28;20106;-70
2022/05/02 05:43:05;;;;;;;;;;;17.50;49.30;;;;;;5086525;28;20106;-70
2022/05/02 05:45:52;;;;;;;6.65;5.85;;;18.20;48.40;;;;;;5080443;28;19987;-70
2022/05/02 05:48:27;;;;;;;6.97;5.22;;;18.80;46.90;;;;;;5087159;28;20139;-70
2022/05/02 05:51:09;;;;;;;9.32;5.82;;;19.30;46.10;;;;;;5086847;28;20028;-69
2022/05/02 05:53:50;;;;;;;8.48;5.63;;;19.90;44.90;;;;;;5087202;28;20447;-69
2022/05/02 05:56:43;;;;;;;6.68;5.28;;;20.40;43.70;;;;;;5096377;28;20486;-69
2022/05/02 05:59:17;;;;;;;6.82;5.38;;;20.80;42.80;;;;;;5087609;28;20040;-70
2022/05/02 06:01:54;;;;;;;8.45;5.55;;;21.30;42.10;;;;;;5087963;28;20028;-70
2022/05/02 06:04:22;;;;;;;7.40;5.15;;;21.70;41.20;;;;;;5084063;28;20434;-70
2022/05/02 06:06:48;;;;;;;5.40;4.68;;;22.00;40.60;;;;;;5084037;28;20020;-70
2022/05/02 06:09:15;;;;;;;6.38;4.65;;;22.30;40.30;;;;;;5077491;28;20471;-70
2022/05/02 06:11:44;;;;;;;6.35;4.88;;;22.60;39.60;;;;;;5091494;28;20032;-70
2022/05/02 06:14:11;;;;;;;6.53;4.97;;;22.90;39.00;;;;;;5088019;28;20028;-69
2022/05/02 06:19:26;;;;;;;5.70;4.30;;;23.30;37.80;;;;;;5089994;28;20303;-69
2022/05/02 06:21:54;;;;;;;5.60;4.50;;;23.50;37.40;;;;;;5090264;28;20378;-69
2022/05/02 06:24:25;;;;;;;5.88;4.55;;;23.50;37.10;;;;;;5084507;28;20054;-69
2022/05/02 06:26:52;;;;;;;5.78;4.30;;;23.80;36.90;;;;;;5073673;28;20434;-70
2022/05/02 06:29:20;;;;;;;5.43;4.50;;;24.10;36.40;;;;;;5087560;28;20051;-70
2022/05/02 06:31:50;;;;;;;6.43;4.70;;;24.20;36.00;;;;;;5088532;28;20036;-69
2022/05/02 06:34:23;;;;;;;5.97;4.72;;;24.40;35.90;;;;;;5085909;28;20110;-69
2022/05/02 06:37:07;;;;;;;5.40;4.75;;;24.60;35.60;;;;;;5080969;28;20035;-70
2022/05/02 06:40:01;;;;;;;5.53;4.50;;;24.70;35.40;;;;;;5088262;28;20029;-69
2022/05/02 06:42:48;;;;;;;5.05;4.13;;;24.70;35.50;;;;;;5086677;28;20050;-71
2022/05/02 06:45:48;;;;;;;7.90;4.50;;;24.80;35.30;;;;;;5089378;28;20032;-71
2022/05/02 06:48:29;;;;;;;5.80;4.30;;;24.50;35.40;;;;;;5076252;28;20028;-71
2022/05/02 06:51:01;;;;;;;4.88;3.75;;;24.40;35.70;;;;;;5085005;28;20052;-71
2022/05/02 06:53:32;;;;;;;;;;;24.50;35.80;;;;;;5092065;28;20115;-70
2022/05/02 06:56:16;;;;;;;6.07;4.38;;;24.60;35.60;;;;;;5085801;28;20349;-70
2022/05/02 06:59:00;;;;;;;4.88;3.97;;;24.50;35.40;;;;;;5084715;28;20119;-70
2022/05/02 07:01:49;;;;;;;5.60;3.97;;;24.20;35.50;;;;;;5081759;28;20028;-70
2022/05/02 07:04:49;;;;;;;4.75;4.03;;;24.20;35.40;;;;;;5086764;28;20024;-70
2022/05/02 07:07:47;;;;;;;5.80;4.63;;;24.30;35.30;;;;;;5085348;28;20028;-70
2022/05/02 07:10:25;;;;;;;6.05;3.88;;;24.00;34.60;;;;;;5085519;28;20040;-70
2022/05/02 07:13:09;;;;;;;4.50;3.55;;;24.10;34.90;;;;;;5082511;28;20040;-70
2022/05/02 07:15:40;;;;;;;4.35;3.38;;;24.30;34.80;;;;;;5100003;28;20024;-70
2022/05/02 07:18:13;;;;;;;7.00;4.55;;;24.30;34.60;;;;;;5084149;28;20073;-69
2022/05/02 07:21:00;;;;;;;5.18;4.30;;;24.50;34.10;;;;;;5084093;28;20024;-68
2022/05/02 07:23:34;;;;;;;6.30;4.50;;;24.60;33.60;;;;;;5083051;28;20047;-69
2022/05/02 07:26:07;;;;;;;4.72;3.90;;;24.50;33.30;;;;;;5086007;28;20505;-69
2022/05/02 07:28:47;;;;;;;7.05;4.45;;;24.50;33.30;;;;;;5085213;28;20056;-70
2022/05/02 07:31:21;;;;;;;7.32;4.75;;;24.40;33.60;;;;;;5082609;28;20029;-70
2022/05/02 07:33:49;;;;;;;5.90;4.18;;;24.20;33.50;;;;;;5078184;28;20024;-70
2022/05/02 07:36:20;;;;;;;5.72;4.30;;;24.20;33.80;;;;;;5079499;28;20494;-70
2022/05/02 07:38:52;;;;;;;5.28;4.25;;;24.10;34.00;;;;;;5086081;28;20024;-70
2022/05/02 07:41:23;;;;;;;6.03;4.05;;;24.00;34.30;;;;;;5085609;28;20186;-70
2022/05/02 07:44:06;;;;;;;5.13;4.30;;;23.90;34.70;;;;;;5082414;28;20020;-70
2022/05/02 07:46:39;;;;;;;7.28;5.55;;;23.60;35.10;;;;;;5086076;28;20024;-70
2022/05/02 07:49:07;;;;;;;6.65;5.45;;;23.10;35.40;;;;;;5085697;28;20024;-70
2022/05/02 07:51:40;;;;;;;6.93;5.15;;;22.40;35.60;;;;;;5086771;28;20032;-70
2022/05/02 07:54:12;;;;;;;5.05;4.10;;;21.70;36.50;;;;;;5086944;28;20027;-70
2022/05/02 07:56:40;;;;;;;5.13;3.67;;;21.10;37.60;;;;;;5086618;28;20033;-70
2022/05/02 07:59:07;;;;;;;6.60;4.88;;;20.60;38.00;;;;;;5078851;28;20387;-71
2022/05/02 08:01:33;;;;;;;6.10;4.80;;;20.00;38.60;;;;;;5089330;28;20021;-70
2022/05/02 08:03:58;;;;;;;6.57;5.28;;;19.70;39.10;;;;;;5106141;28;20028;-70
2022/05/02 08:06:53;;;;;;;6.85;4.57;;;19.10;39.10;;;;;;5091837;28;20508;-70
2022/05/02 08:09:30;;;;;;;6.55;4.38;;;18.90;40.20;;;;;;5089934;28;20490;-69
2022/05/02 08:12:14;;;;;;;6.53;4.35;;;18.80;40.60;;;;;;5088169;28;20489;-70
2022/05/02 08:15:01;;;;;;;6.25;5.05;;;18.80;40.90;;;;;;5082814;28;20025;-69
2022/05/02 08:17:37;;;;;;;6.05;4.93;;;18.70;40.80;;;;;;5087624;28;20043;-70
2022/05/02 08:20:06;;;;;;;9.50;6.90;;;18.70;40.50;;;;;;5089953;28;20020;-69
2022/05/02 08:29:01;;;;;;;8.98;6.57;;;17.60;40.80;;;;;;5087149;28;20441;-70
2022/05/02 08:31:45;;;;;;;7.45;6.20;;;17.50;40.90;;;;;;5086200;28;20362;-69
2022/05/02 08:34:28;;;;;;;8.23;6.00;;;17.30;41.50;;;;;;5089532;28;20089;-69
2022/05/02 08:37:24;;;;;;;9.10;5.53;;;17.50;41.40;;;;;;5091762;28;20027;-69
2022/05/02 08:40:04;;;;;;;8.05;4.78;;;17.70;41.50;;;;;;5091181;28;20048;-69
2022/05/02 08:42:52;;;;;;;6.60;4.95;;;18.00;41.50;;;;;;5089655;28;20028;-70
2022/05/02 08:45:27;;;;;;;8.13;5.50;;;18.20;41.20;;;;;;5094240;28;20021;-69
2022/05/02 08:48:22;;;;;;;6.18;5.05;;;18.30;40.70;;;;;;5093226;28;20020;-69
2022/05/02 08:51:24;;;;;;;7.40;4.88;;;18.40;40.70;;;;;;5096616;28;20023;-71
2022/05/02 08:54:04;;;;;;;7.60;5.68;;;18.60;40.50;;;;;;5098127;28;20035;-69
2022/05/02 08:57:03;;;;;;;6.03;4.97;;;18.60;40.30;;;;;;5098411;28;20051;-67
2022/05/02 08:59:34;;;;;;;7.57;5.03;;;18.50;40.00;;;;;;5089931;28;20405;-69
2022/05/02 09:02:15;;;;;;;7.88;6.15;;;18.70;40.10;;;;;;5087299;28;20086;-70
2022/05/02 09:05:40;;;;;;;7.32;5.70;;;18.70;39.40;;;;;;5090690;28;20030;-68
2022/05/02 09:08:45;;;;;;;5.45;4.63;;;18.40;39.90;;;;;;5044510;28;20425;-70
2022/05/02 09:11:10;;;;;;;7.25;5.88;;;18.50;40.20;;;;;;5059799;28;20033;-70
2022/05/02 09:14:15;;;;;;;6.47;5.30;;;18.50;40.00;;;;;;5078448;28;20709;-70
2022/05/02 09:17:08;;;;;;;5.78;4.95;;;18.70;39.90;;;;;;5088892;28;20031;-71
2022/05/02 09:20:03;;;;;;;6.57;5.20;;;18.80;39.70;;;;;;5087685;28;20028;-70
2022/05/02 09:22:53;;;;;;;6.47;5.18;;;18.90;39.20;;;;;;5088544;28;20189;-70
2022/05/02 09:25:35;;;;;;;6.53;5.78;;;19.00;39.10;;;;;;5096420;28;20078;-69
2022/05/02 09:28:24;;;;;;;6.13;4.80;;;18.90;39.00;;;;;;5090497;28;20036;-69
2022/05/02 09:31:00;;;;;;;8.27;6.13;;;18.80;39.30;;;;;;5092985;28;20482;-70
2022/05/02 09:33:54;;;;;;;7.03;5.20;;;18.80;38.90;;;;;;5106985;28;20081;-69
2022/05/02 09:36:27;;;;;;;5.20;4.38;;;18.60;39.10;;;;;;5088041;28;20047;-70
2022/05/02 09:39:01;;;;;;;5.82;5.18;;;18.70;39.30;;;;;;5085061;28;20112;-71
2022/05/02 09:41:49;;;;;;;7.35;6.10;;;18.80;39.10;;;;;;5089569;28;20074;-72
2022/05/02 09:50:37;;;;;;;6.63;4.53;;;18.70;38.30;;;;;;5090773;28;20043;-70
2022/05/02 09:53:31;;;;;;;6.18;5.40;;;18.90;38.40;;;;;;5088954;28;20028;-69
2022/05/02 09:59:36;;;;;;;8.30;5.90;;;19.00;38.40;;;;;;5085011;28;20370;-70
2022/05/02 10:02:05;;;;;;;6.60;5.40;;;19.20;38.30;;;;;;5022919;28;20022;-69
2022/05/02 10:04:47;;;;;;;6.68;4.53;;;19.20;37.50;;;;;;5074623;28;20040;-70
2022/05/02 10:07:16;;;;;;;;;;;19.10;37.70;;;;;;5088111;28;20064;-69
2022/05/02 10:10:22;;;;;;;4.55;3.92;;;19.00;38.00;;;;;;5082050;28;19904;-71
2022/05/02 10:13:02;;;;;;;5.05;4.20;;;19.00;38.50;;;;;;5065108;28;20036;-69
2022/05/02 10:15:48;;;;;;;7.63;5.88;;;19.20;38.40;;;;;;5086849;28;20107;-68
2022/05/02 10:18:38;;;;;;;8.35;6.30;;;19.10;37.60;;;;;;5087385;28;20031;-69
2022/05/02 10:21:37;;;;;;;6.55;5.20;;;18.90;37.70;;;;;;5085644;28;20032;-68
2022/05/02 10:24:12;;;;;;;5.03;4.38;;;19.00;37.90;;;;;;5084382;28;20020;-71
2022/05/02 10:27:05;;;;;;;5.72;4.22;;;19.20;38.10;;;;;;5088992;28;20095;-68
2022/05/02 10:29:31;;;;;;;6.40;5.10;;;19.40;37.90;;;;;;5086765;28;20386;-68
2022/05/02 10:32:04;;;;;;;6.47;5.78;;;19.50;37.20;;;;;;5088342;28;20039;-70
2022/05/02 10:34:33;;;;;;;8.45;6.82;;;19.40;37.10;;;;;;5083826;28;20024;-70
2022/05/02 10:37:03;;;;;;;6.53;5.43;;;19.10;36.90;;;;;;5083509;28;20394;-71
2022/05/02 10:39:40;;;;;;;5.43;4.70;;;19.10;37.40;;;;;;5084828;28;20016;-69
2022/05/02 10:42:07;;;;;;;8.50;6.22;;;19.10;37.60;;;;;;5096130;28;20092;-69
2022/05/02 10:44:56;;;;;;;6.50;5.45;;;19.00;37.20;;;;;;5082660;28;20032;-71
2022/05/02 10:47:25;;;;;;;6.38;5.35;;;19.10;37.50;;;;;;5078435;28;20035;-68
2022/05/02 10:50:13;;;;;;;7.13;5.10;;;19.30;37.40;;;;;;5086662;28;20089;-69
2022/05/02 10:52:45;;;;;;;5.22;4.07;;;19.40;37.20;;;;;;5085136;28;20028;-69
2022/05/02 10:55:59;;;;;;;5.80;4.95;;;19.50;37.30;;;;;;5084697;28;20028;-69
2022/05/02 10:58:24;;;;;;;6.45;4.80;;;19.30;36.60;;;;;;5040407;28;20044;-69
2022/05/02 11:01:03;;;;;;;6.00;5.05;;;18.90;37.20;;;;;;5085665;28;20043;-70
2022/05/02 11:03:55;;;;;;;6.05;5.22;;;18.90;37.40;;;;;;5077430;28;20032;-71
2022/05/02 11:06:26;;;;;;;5.47;4.77;;;18.80;37.60;;;;;;5081052;28;20115;-73
2022/05/02 11:08:57;;;;;;;6.00;4.20;;;19.10;37.80;;;;;;5079303;28;20047;-72
2022/05/02 11:11:36;;;;;;;4.35;3.35;;;19.40;37.60;;;;;;5088750;28;20032;-73
2022/05/02 11:14:30;;;;;;;4.45;3.75;;;19.70;37.30;;;;;;5079027;28;20024;-75
2022/05/02 11:17:13;;;;;;;5.57;4.13;;;19.90;37.00;;;;;;5090154;28;20036;-73
2022/05/02 11:23:25;;;;;;;9.07;6.65;;;20.00;35.90;;;;;;5092699;28;20164;-72
2022/05/02 11:26:13;;;;;;;6.57;5.50;;;19.60;36.30;;;;;;5090015;28;20396;-70
2022/05/02 11:29:13;;;;;;;7.35;6.43;;;19.40;36.80;;;;;;5084485;28;20490;-72
2022/05/02 11:32:01;;;;;;;6.10;5.15;;;19.40;36.40;;;;;;5082964;28;20194;-72
2022/05/02 11:34:47;;;;;;;5.85;5.00;;;19.40;36.80;;;;;;5084083;28;20622;-73
2022/05/02 11:37:33;;;;;;;6.05;5.22;;;19.70;36.70;;;;;;5085490;28;20032;-73
2022/05/02 11:40:06;;;;;;;7.28;6.55;;;20.00;36.00;;;;;;5085434;28;20035;-73
2022/05/02 11:42:33;;;;;;;7.10;4.93;;;20.00;35.70;;;;;;5086386;28;20474;-72
2022/05/02 11:45:12;;;;;;;4.32;3.92;;;20.10;36.20;;;;;;5082326;28;20020;-72
2022/05/02 11:48:01;;;;;;;7.25;5.75;;;20.40;36.30;;;;;;5069512;28;20040;-71
2022/05/02 11:50:30;;;;;;;9.48;6.53;;;20.60;35.10;;;;;;5086323;28;20032;-73
2022/05/02 11:52:59;;;;;;;7.70;6.30;;;20.30;34.90;;;;;;5085911;28;20034;-72
2022/05/02 11:55:31;;;;;;;6.15;5.38;;;20.20;35.00;;;;;;5083036;28;20028;-73
2022/05/02 11:58:08;;;;;;;6.00;5.07;;;20.30;35.40;;;;;;5088008;28;20082;-74
2022/05/02 12:00:36;;;;;;;6.55;5.50;;;20.40;35.20;;;;;;5083774;28;20039;-74
2022/05/02 12:03:16;;;;;;;7.05;5.38;;;20.40;35.00;;;;;;5076040;28;20016;-73
2022/05/02 12:05:57;;;;;;;5.63;4.13;;;20.70;35.10;;;;;;5082298;28;20028;-74
2022/05/02 12:08:34;;;;;;;5.93;4.53;;;20.90;34.90;;;;;;5083097;28;20036;-74
2022/05/02 12:11:11;;;;;;;6.10;4.80;;;21.10;34.40;;;;;;5082894;28;20020;-72
2022/05/02 12:13:40;;;;;;;6.10;4.60;;;21.30;34.10;;;;;;5086225;28;20030;-74
2022/05/02 12:16:17;;;;;;;5.88;4.30;;;21.50;34.00;;;;;;5084668;28;20048;-73
2022/05/02 12:18:55;;;;;;;7.05;4.05;;;21.80;33.90;;;;;;5096035;28;20032;-73
2022/05/02 12:21:35;;;;;;;5.93;3.92;;;22.10;33.60;;;;;;5086462;28;20032;-72
2022/05/02 12:24:03;;;;;;;5.38;4.35;;;22.40;33.50;;;;;;5081780;28;20024;-73
2022/05/02 12:26:31;;;;;;;5.00;4.10;;;22.60;33.60;;;;;;5081154;28;20513;-74
2022/05/02 12:29:00;;;;;;;4.65;3.80;;;22.80;32.70;;;;;;5080836;28;20023;-74
2022/05/02 12:31:34;;;;;;;5.32;4.22;;;23.10;32.70;;;;;;5086765;28;20111;-74
2022/05/02 12:34:06;;;;;;;5.38;4.75;;;23.30;32.30;;;;;;5081821;28;20039;-73
2022/05/02 12:36:44;;;;;;;5.82;4.50;;;23.30;31.60;;;;;;5086589;28;20028;-73
2022/05/02 12:39:13;;;;;;;5.78;5.03;;;23.30;31.70;;;;;;5079569;28;20115;-74
2022/05/02 12:41:50;;;;;;;5.60;4.43;;;23.10;31.20;;;;;;5081350;28;20107;-72
2022/05/02 12:44:17;;;;;;;4.45;4.03;;;22.60;32.10;;;;;;5087668;28;20027;-71
2022/05/02 12:46:48;;;;;;;5.30;4.10;;;22.40;32.60;;;;;;5084975;28;20024;-72
2022/05/02 12:49:32;;;;;;;6.30;4.60;;;22.40;32.80;;;;;;5081039;28;20032;-72
2022/05/02 12:51:57;;;;;;;9.02;5.10;;;22.10;32.70;;;;;;5083770;28;20062;-73
2022/05/02 12:54:27;;;;;;;5.05;4.43;;;21.70;33.20;;;;;;5091215;28;20051;-72
2022/05/02 13:02:45;;;;;;;5.95;4.38;;;21.20;33.50;;;;;;5083066;28;20553;-72
2022/05/02 13:05:17;;;;;;;5.78;4.32;;;21.10;33.40;;;;;;5081169;28;20465;-72
2022/05/02 13:07:48;;;;;;;4.68;3.83;;;21.10;33.70;;;;;;5086867;28;20195;-73
2022/05/02 13:10:35;;;;;;;5.20;4.70;;;21.00;33.70;;;;;;5087573;28;20036;-73
2022/05/02 13:13:04;;;;;;;4.50;3.88;;;21.00;33.50;;;;;;5084123;28;20043;-71
2022/05/02 13:15:34;;;;;;;5.28;3.90;;;20.90;33.90;;;;;;5081177;28;20136;-71
2022/05/02 13:18:06;;;;;;;5.50;4.45;;;21.00;33.90;;;;;;5084037;28;20017;-71
2022/05/02 13:20:33;;;;;;;6.22;4.68;;;21.20;33.90;;;;;;5087065;28;20560;-70
2022/05/02 13:23:13;;;;;;;7.60;5.30;;;21.60;33.70;;;;;;5087603;28;20020;-70
2022/05/02 13:26:16;;;;;;;7.57;5.50;;;21.70;33.00;;;;;;5090848;28;20016;-72
2022/05/02 13:29:07;;;;;;;5.30;4.05;;;22.00;32.70;;;;;;5085138;28;20024;-73
2022/05/02 13:31:48;;;;;;;4.63;4.20;;;22.20;32.70;;;;;;5089075;28;20043;-71
2022/05/02 13:34:36;;;;;;;6.00;3.90;;;22.50;32.50;;;;;;5081863;28;20028;-71
2022/05/02 13:37:22;;;;;;;5.07;4.28;;;22.60;32.30;;;;;;5088253;28;20035;-70
2022/05/02 13:40:05;;;;;;;4.55;4.10;;;22.80;31.90;;;;;;5086832;28;20028;-70
2022/05/02 13:42:51;;;;;;;4.70;3.70;;;22.60;31.90;;;;;;5084953;28;20383;-71
2022/05/02 13:45:19;;;;;;;4.22;3.60;;;22.40;32.20;;;;;;5088136;28;20024;-69
2022/05/02 13:47:51;;;;;;;5.15;3.75;;;22.30;32.40;;;;;;5085910;28;20059;-71
2022/05/02 13:50:21;;;;;;;4.45;3.38;;;22.20;32.70;;;;;;5077140;28;20427;-70
2022/05/02 13:53:20;;;;;;;5.03;3.20;;;22.10;32.70;;;;;;5089260;28;20638;-70
2022/05/02 13:56:18;;;;;;;5.65;3.88;;;22.00;32.80;;;;;;5081345;28;20056;-71
2022/05/02 13:59:04;;;;;;;6.90;5.03;;;22.00;32.90;;;;;;5081640;28;20063;-69
2022/05/02 14:01:42;;;;;;;5.63;4.35;;;21.70;32.30;;;;;;5087672;28;20024;-71
2022/05/02 14:04:24;;;;;;;5.10;3.67;;;21.30;32.80;;;;;;5087460;28;20016;-71